sensor_id;sensor_type;location;lat;lon;timestamp;temperature;humidity
37232;DHT22;23125;48.156;15.954;2023-11-21T00:00:19;9.00;61.00
37232;DHT22;23125;48.156;15.954;2023-11-21T00:02:46;9.00;61.00
37232;DHT22;23125;48.156;15.954;2023-11-21T00:05:13;9.00;61.00
37232;DHT22;23125;48.156;15.954;2023-11-21T00:07:40;8.90;61.10
37232;DHT22;23125;48.156;15.954;2023-11-21T00:10:08;8.90;61.10
37232;DHT22;23125;48.156;15.954;2023-11-21T00:12:37;8.90;61.10
37232;DHT22;23125;48.156;15.954;2023-11-21T00:15:03;8.90;61.10
37232;DHT22;23125;48.156;15.954;2023-11-21T00:17:35;8.80;61.10
37232;DHT22;23125;48.156;15.954;2023-11-21T00:20:00;8.80;61.00
37232;DHT22;23125;48.156;15.954;2023-11-21T00:22:26;8.70;61.00
37232;DHT22;23125;48.156;15.954;2023-11-21T00:24:52;8.70;61.00
37232;DHT22;23125;48.156;15.954;2023-11-21T00:27:18;8.70;61.00
37232;DHT22;23125;48.156;15.954;2023-11-21T00:29:43;8.70;61.10
37232;DHT22;23125;48.156;15.954;2023-11-21T00:32:09;8.60;61.00
37232;DHT22;23125;48.156;15.954;2023-11-21T00:34:35;8.60;61.00
37232;DHT22;23125;48.156;15.954;2023-11-21T00:37:01;8.60;61.10
37232;DHT22;23125;48.156;15.954;2023-11-21T00:39:28;8.50;61.00
37232;DHT22;23125;48.156;15.954;2023-11-21T00:41:54;8.50;61.10
37232;DHT22;23125;48.156;15.954;2023-11-21T00:44:20;8.50;61.10
37232;DHT22;23125;48.156;15.954;2023-11-21T00:46:45;8.40;61.00
37232;DHT22;23125;48.156;15.954;2023-11-21T00:49:11;8.40;61.10
37232;DHT22;23125;48.156;15.954;2023-11-21T00:51:37;8.40;61.10
37232;DHT22;23125;48.156;15.954;2023-11-21T00:54:03;8.30;61.10
37232;DHT22;23125;48.156;15.954;2023-11-21T00:56:29;8.30;61.20
37232;DHT22;23125;48.156;15.954;2023-11-21T00:58:55;8.30;61.20
37232;DHT22;23125;48.156;15.954;2023-11-21T01:01:21;8.20;61.10
37232;DHT22;23125;48.156;15.954;2023-11-21T01:03:50;8.20;61.00
37232;DHT22;23125;48.156;15.954;2023-11-21T01:06:16;8.20;61.10
37232;DHT22;23125;48.156;15.954;2023-11-21T01:08:44;8.10;61.10
37232;DHT22;23125;48.156;15.954;2023-11-21T01:11:11;8.10;61.10
37232;DHT22;23125;48.156;15.954;2023-11-21T01:13:39;8.10;61.20
37232;DHT22;23125;48.156;15.954;2023-11-21T01:16:06;8.00;61.30
37232;DHT22;23125;48.156;15.954;2023-11-21T01:18:32;8.00;61.30
37232;DHT22;23125;48.156;15.954;2023-11-21T01:20:59;8.00;61.40
37232;DHT22;23125;48.156;15.954;2023-11-21T01:23:27;8.00;61.40
37232;DHT22;23125;48.156;15.954;2023-11-21T01:25:55;8.00;61.30
37232;DHT22;23125;48.156;15.954;2023-11-21T01:28:21;8.00;61.50
37232;DHT22;23125;48.156;15.954;2023-11-21T01:30:48;7.90;61.40
37232;DHT22;23125;48.156;15.954;2023-11-21T01:33:15;7.90;61.40
37232;DHT22;23125;48.156;15.954;2023-11-21T01:35:42;7.90;61.50
37232;DHT22;23125;48.156;15.954;2023-11-21T01:38:08;7.90;61.50
37232;DHT22;23125;48.156;15.954;2023-11-21T01:40:34;7.90;61.50
37232;DHT22;23125;48.156;15.954;2023-11-21T01:43:00;7.90;61.50
37232;DHT22;23125;48.156;15.954;2023-11-21T01:45:29;7.80;61.50
37232;DHT22;23125;48.156;15.954;2023-11-21T01:47:57;7.80;61.40
37232;DHT22;23125;48.156;15.954;2023-11-21T01:50:26;7.80;61.50
37232;DHT22;23125;48.156;15.954;2023-11-21T01:52:53;7.80;61.30
37232;DHT22;23125;48.156;15.954;2023-11-21T01:55:20;7.80;61.50
37232;DHT22;23125;48.156;15.954;2023-11-21T01:57:47;7.70;61.40
37232;DHT22;23125;48.156;15.954;2023-11-21T02:00:13;7.70;61.50
37232;DHT22;23125;48.156;15.954;2023-11-21T02:02:45;7.60;61.50
37232;DHT22;23125;48.156;15.954;2023-11-21T02:05:13;7.60;61.50
37232;DHT22;23125;48.156;15.954;2023-11-21T02:07:41;7.60;61.50
37232;DHT22;23125;48.156;15.954;2023-11-21T02:10:08;7.60;61.50
37232;DHT22;23125;48.156;15.954;2023-11-21T02:12:35;7.50;61.40
37232;DHT22;23125;48.156;15.954;2023-11-21T02:15:05;7.50;61.40
37232;DHT22;23125;48.156;15.954;2023-11-21T02:17:36;7.50;61.50
37232;DHT22;23125;48.156;15.954;2023-11-21T02:20:02;7.50;61.60
37232;DHT22;23125;48.156;15.954;2023-11-21T02:22:31;7.40;61.50
37232;DHT22;23125;48.156;15.954;2023-11-21T02:24:59;7.40;61.50
37232;DHT22;23125;48.156;15.954;2023-11-21T02:27:25;7.40;61.50
37232;DHT22;23125;48.156;15.954;2023-11-21T02:29:52;7.40;61.60
37232;DHT22;23125;48.156;15.954;2023-11-21T02:32:18;7.40;61.70
37232;DHT22;23125;48.156;15.954;2023-11-21T02:34:45;7.30;61.60
37232;DHT22;23125;48.156;15.954;2023-11-21T02:37:11;7.30;61.60
37232;DHT22;23125;48.156;15.954;2023-11-21T02:39:37;7.20;61.60
37232;DHT22;23125;48.156;15.954;2023-11-21T02:42:03;7.20;61.60
37232;DHT22;23125;48.156;15.954;2023-11-21T02:44:29;7.20;61.70
37232;DHT22;23125;48.156;15.954;2023-11-21T02:46:55;7.20;61.70
37232;DHT22;23125;48.156;15.954;2023-11-21T02:49:23;7.10;61.60
37232;DHT22;23125;48.156;15.954;2023-11-21T02:51:49;7.10;61.60
37232;DHT22;23125;48.156;15.954;2023-11-21T02:54:15;7.10;61.70
37232;DHT22;23125;48.156;15.954;2023-11-21T02:56:42;7.10;61.60
37232;DHT22;23125;48.156;15.954;2023-11-21T02:59:08;7.10;61.80
37232;DHT22;23125;48.156;15.954;2023-11-21T03:01:34;7.00;61.80
37232;DHT22;23125;48.156;15.954;2023-11-21T03:04:00;7.00;61.80
37232;DHT22;23125;48.156;15.954;2023-11-21T03:06:27;7.00;61.90
37232;DHT22;23125;48.156;15.954;2023-11-21T03:08:53;7.00;61.80
37232;DHT22;23125;48.156;15.954;2023-11-21T03:11:19;7.00;61.80
37232;DHT22;23125;48.156;15.954;2023-11-21T03:13:45;6.90;61.70
37232;DHT22;23125;48.156;15.954;2023-11-21T03:16:11;6.90;61.90
37232;DHT22;23125;48.156;15.954;2023-11-21T03:18:39;6.80;61.80
37232;DHT22;23125;48.156;15.954;2023-11-21T03:21:05;6.80;61.90
37232;DHT22;23125;48.156;15.954;2023-11-21T03:23:33;6.80;62.00
37232;DHT22;23125;48.156;15.954;2023-11-21T03:25:59;6.80;62.10
37232;DHT22;23125;48.156;15.954;2023-11-21T03:28:26;6.70;61.90
37232;DHT22;23125;48.156;15.954;2023-11-21T03:30:52;6.70;61.90
37232;DHT22;23125;48.156;15.954;2023-11-21T03:33:18;6.70;62.00
37232;DHT22;23125;48.156;15.954;2023-11-21T03:35:44;6.70;62.10
37232;DHT22;23125;48.156;15.954;2023-11-21T03:38:10;6.70;62.10
37232;DHT22;23125;48.156;15.954;2023-11-21T03:40:36;6.70;62.10
37232;DHT22;23125;48.156;15.954;2023-11-21T03:43:02;6.70;62.20
37232;DHT22;23125;48.156;15.954;2023-11-21T03:45:28;6.60;62.10
37232;DHT22;23125;48.156;15.954;2023-11-21T03:47:54;6.60;62.10
37232;DHT22;23125;48.156;15.954;2023-11-21T03:50:20;6.60;62.10
37232;DHT22;23125;48.156;15.954;2023-11-21T03:52:46;6.60;62.20
37232;DHT22;23125;48.156;15.954;2023-11-21T03:55:11;6.50;62.20
37232;DHT22;23125;48.156;15.954;2023-11-21T03:57:37;6.60;62.50
37232;DHT22;23125;48.156;15.954;2023-11-21T04:00:03;6.60;62.60
37232;DHT22;23125;48.156;15.954;2023-11-21T04:02:34;6.60;62.70
37232;DHT22;23125;48.156;15.954;2023-11-21T04:05:00;6.60;62.80
37232;DHT22;23125;48.156;15.954;2023-11-21T04:07:25;6.50;62.80
37232;DHT22;23125;48.156;15.954;2023-11-21T04:09:52;6.60;63.00
37232;DHT22;23125;48.156;15.954;2023-11-21T04:12:19;6.60;62.90
37232;DHT22;23125;48.156;15.954;2023-11-21T04:14:45;6.60;63.00
37232;DHT22;23125;48.156;15.954;2023-11-21T04:17:11;6.60;62.80
37232;DHT22;23125;48.156;15.954;2023-11-21T04:19:37;6.60;62.70
37232;DHT22;23125;48.156;15.954;2023-11-21T04:22:03;6.60;62.80
37232;DHT22;23125;48.156;15.954;2023-11-21T04:24:29;6.60;62.90
37232;DHT22;23125;48.156;15.954;2023-11-21T04:26:55;6.60;62.90
37232;DHT22;23125;48.156;15.954;2023-11-21T04:29:21;6.60;63.00
37232;DHT22;23125;48.156;15.954;2023-11-21T04:31:48;6.60;63.00
37232;DHT22;23125;48.156;15.954;2023-11-21T04:34:15;6.60;63.00
37232;DHT22;23125;48.156;15.954;2023-11-21T04:36:40;6.60;63.00
37232;DHT22;23125;48.156;15.954;2023-11-21T04:39:06;6.60;63.00
37232;DHT22;23125;48.156;15.954;2023-11-21T04:41:32;6.60;63.00
37232;DHT22;23125;48.156;15.954;2023-11-21T04:43:58;6.60;63.10
37232;DHT22;23125;48.156;15.954;2023-11-21T04:46:26;6.60;63.70
37232;DHT22;23125;48.156;15.954;2023-11-21T04:48:52;6.60;63.20
37232;DHT22;23125;48.156;15.954;2023-11-21T04:51:18;6.60;63.30
37232;DHT22;23125;48.156;15.954;2023-11-21T04:53:43;6.60;63.30
37232;DHT22;23125;48.156;15.954;2023-11-21T04:56:09;6.60;63.40
37232;DHT22;23125;48.156;15.954;2023-11-21T04:58:35;6.70;63.40
37232;DHT22;23125;48.156;15.954;2023-11-21T05:01:01;6.70;63.40
37232;DHT22;23125;48.156;15.954;2023-11-21T05:03:27;6.70;63.50
37232;DHT22;23125;48.156;15.954;2023-11-21T05:05:56;6.70;63.60
37232;DHT22;23125;48.156;15.954;2023-11-21T05:08:21;6.70;63.60
37232;DHT22;23125;48.156;15.954;2023-11-21T05:10:48;6.60;63.50
37232;DHT22;23125;48.156;15.954;2023-11-21T05:13:15;6.70;63.60
37232;DHT22;23125;48.156;15.954;2023-11-21T05:15:44;6.70;63.60
37232;DHT22;23125;48.156;15.954;2023-11-21T05:18:10;6.70;63.60
37232;DHT22;23125;48.156;15.954;2023-11-21T05:20:36;6.70;63.50
37232;DHT22;23125;48.156;15.954;2023-11-21T05:23:03;6.70;63.50
37232;DHT22;23125;48.156;15.954;2023-11-21T05:25:30;6.60;63.40
37232;DHT22;23125;48.156;15.954;2023-11-21T05:27:56;6.70;63.40
37232;DHT22;23125;48.156;15.954;2023-11-21T05:30:22;6.70;63.40
37232;DHT22;23125;48.156;15.954;2023-11-21T05:32:48;6.60;63.40
37232;DHT22;23125;48.156;15.954;2023-11-21T05:35:15;6.60;63.50
37232;DHT22;23125;48.156;15.954;2023-11-21T05:37:42;6.60;63.50
37232;DHT22;23125;48.156;15.954;2023-11-21T05:40:08;6.60;63.50
37232;DHT22;23125;48.156;15.954;2023-11-21T05:42:36;6.60;63.50
37232;DHT22;23125;48.156;15.954;2023-11-21T05:45:04;6.60;63.50
37232;DHT22;23125;48.156;15.954;2023-11-21T05:47:38;6.60;63.50
37232;DHT22;23125;48.156;15.954;2023-11-21T05:50:07;6.60;63.50
37232;DHT22;23125;48.156;15.954;2023-11-21T05:52:41;6.60;63.60
37232;DHT22;23125;48.156;15.954;2023-11-21T05:55:08;6.60;63.70
37232;DHT22;23125;48.156;15.954;2023-11-21T05:57:35;6.60;63.70
37232;DHT22;23125;48.156;15.954;2023-11-21T06:00:09;6.60;64.00
37232;DHT22;23125;48.156;15.954;2023-11-21T06:02:49;6.60;64.20
37232;DHT22;23125;48.156;15.954;2023-11-21T06:05:19;6.60;64.40
37232;DHT22;23125;48.156;15.954;2023-11-21T06:07:45;6.70;64.50
37232;DHT22;23125;48.156;15.954;2023-11-21T06:10:12;6.70;64.50
37232;DHT22;23125;48.156;15.954;2023-11-21T06:12:40;6.70;64.50
37232;DHT22;23125;48.156;15.954;2023-11-21T06:15:09;6.70;64.50
37232;DHT22;23125;48.156;15.954;2023-11-21T06:17:39;6.80;64.70
37232;DHT22;23125;48.156;15.954;2023-11-21T06:20:08;6.80;64.70
37232;DHT22;23125;48.156;15.954;2023-11-21T06:22:38;6.80;64.70
37232;DHT22;23125;48.156;15.954;2023-11-21T06:25:05;6.80;64.70
37232;DHT22;23125;48.156;15.954;2023-11-21T06:27:33;6.90;64.70
37232;DHT22;23125;48.156;15.954;2023-11-21T06:30:00;6.90;64.70
37232;DHT22;23125;48.156;15.954;2023-11-21T06:32:25;6.90;64.70
37232;DHT22;23125;48.156;15.954;2023-11-21T06:34:52;6.90;64.80
37232;DHT22;23125;48.156;15.954;2023-11-21T06:37:20;6.90;65.00
37232;DHT22;23125;48.156;15.954;2023-11-21T06:39:49;7.00;65.10
37232;DHT22;23125;48.156;15.954;2023-11-21T06:42:18;7.00;65.20
37232;DHT22;23125;48.156;15.954;2023-11-21T06:44:47;7.00;65.20
37232;DHT22;23125;48.156;15.954;2023-11-21T06:47:14;7.00;65.30
37232;DHT22;23125;48.156;15.954;2023-11-21T06:49:42;7.10;65.50
37232;DHT22;23125;48.156;15.954;2023-11-21T06:52:08;7.10;65.60
37232;DHT22;23125;48.156;15.954;2023-11-21T06:54:34;7.10;65.60
37232;DHT22;23125;48.156;15.954;2023-11-21T06:57:01;7.20;65.70
37232;DHT22;23125;48.156;15.954;2023-11-21T06:59:29;7.30;65.80
37232;DHT22;23125;48.156;15.954;2023-11-21T07:01:55;7.30;65.80
37232;DHT22;23125;48.156;15.954;2023-11-21T07:04:20;7.40;65.90
37232;DHT22;23125;48.156;15.954;2023-11-21T07:06:46;7.40;66.00
37232;DHT22;23125;48.156;15.954;2023-11-21T07:09:12;7.50;66.00
37232;DHT22;23125;48.156;15.954;2023-11-21T07:11:38;7.50;66.10
37232;DHT22;23125;48.156;15.954;2023-11-21T07:14:05;7.60;66.20
37232;DHT22;23125;48.156;15.954;2023-11-21T07:16:36;7.60;66.30
37232;DHT22;23125;48.156;15.954;2023-11-21T07:19:07;7.70;66.50
37232;DHT22;23125;48.156;15.954;2023-11-21T07:21:34;7.70;66.60
37232;DHT22;23125;48.156;15.954;2023-11-21T07:24:03;7.80;66.60
37232;DHT22;23125;48.156;15.954;2023-11-21T07:26:29;7.90;67.00
37232;DHT22;23125;48.156;15.954;2023-11-21T07:28:56;8.00;67.10
37232;DHT22;23125;48.156;15.954;2023-11-21T07:31:22;8.10;67.10
37232;DHT22;23125;48.156;15.954;2023-11-21T07:33:50;8.20;67.50
37232;DHT22;23125;48.156;15.954;2023-11-21T07:36:17;8.30;67.70
37232;DHT22;23125;48.156;15.954;2023-11-21T07:38:49;8.40;67.80
37232;DHT22;23125;48.156;15.954;2023-11-21T07:41:16;8.50;67.80
37232;DHT22;23125;48.156;15.954;2023-11-21T07:43:46;8.60;67.60
37232;DHT22;23125;48.156;15.954;2023-11-21T07:46:12;8.70;67.50
37232;DHT22;23125;48.156;15.954;2023-11-21T07:48:42;8.90;67.70
37232;DHT22;23125;48.156;15.954;2023-11-21T07:51:09;9.00;68.00
37232;DHT22;23125;48.156;15.954;2023-11-21T07:53:36;9.20;69.40
37232;DHT22;23125;48.156;15.954;2023-11-21T07:56:06;9.50;70.40
37232;DHT22;23125;48.156;15.954;2023-11-21T07:58:33;9.80;69.80
37232;DHT22;23125;48.156;15.954;2023-11-21T08:01:00;10.00;70.00
37232;DHT22;23125;48.156;15.954;2023-11-21T08:03:26;10.20;69.50
37232;DHT22;23125;48.156;15.954;2023-11-21T08:05:52;10.40;69.40
37232;DHT22;23125;48.156;15.954;2023-11-21T08:08:18;10.60;69.50
37232;DHT22;23125;48.156;15.954;2023-11-21T08:10:45;10.80;69.10
37232;DHT22;23125;48.156;15.954;2023-11-21T08:13:14;10.90;68.30
37232;DHT22;23125;48.156;15.954;2023-11-21T08:15:43;10.90;67.80
37232;DHT22;23125;48.156;15.954;2023-11-21T08:18:12;11.00;67.60
37232;DHT22;23125;48.156;15.954;2023-11-21T08:20:40;11.00;67.30
37232;DHT22;23125;48.156;15.954;2023-11-21T08:23:06;11.10;67.30
37232;DHT22;23125;48.156;15.954;2023-11-21T08:25:33;11.10;67.20
37232;DHT22;23125;48.156;15.954;2023-11-21T08:28:00;11.10;67.00
37232;DHT22;23125;48.156;15.954;2023-11-21T08:30:27;11.20;67.00
37232;DHT22;23125;48.156;15.954;2023-11-21T08:32:55;11.20;67.00
37232;DHT22;23125;48.156;15.954;2023-11-21T08:35:24;11.30;66.80
37232;DHT22;23125;48.156;15.954;2023-11-21T08:37:53;11.30;66.70
37232;DHT22;23125;48.156;15.954;2023-11-21T08:40:19;11.30;66.70
37232;DHT22;23125;48.156;15.954;2023-11-21T08:42:46;11.30;66.60
37232;DHT22;23125;48.156;15.954;2023-11-21T08:45:14;11.30;66.50
37232;DHT22;23125;48.156;15.954;2023-11-21T08:47:40;11.30;66.40
37232;DHT22;23125;48.156;15.954;2023-11-21T08:50:07;11.30;66.30
37232;DHT22;23125;48.156;15.954;2023-11-21T08:52:34;11.40;66.40
37232;DHT22;23125;48.156;15.954;2023-11-21T08:55:00;11.30;66.40
37232;DHT22;23125;48.156;15.954;2023-11-21T08:57:36;11.40;66.50
37232;DHT22;23125;48.156;15.954;2023-11-21T09:00:09;11.40;66.60
37232;DHT22;23125;48.156;15.954;2023-11-21T09:02:43;11.50;66.80
37232;DHT22;23125;48.156;15.954;2023-11-21T09:05:10;11.50;66.80
37232;DHT22;23125;48.156;15.954;2023-11-21T09:07:38;11.50;66.70
37232;DHT22;23125;48.156;15.954;2023-11-21T09:10:04;11.60;66.60
37232;DHT22;23125;48.156;15.954;2023-11-21T09:12:34;11.60;66.40
37232;DHT22;23125;48.156;15.954;2023-11-21T09:15:03;11.60;66.40
37232;DHT22;23125;48.156;15.954;2023-11-21T09:17:30;11.60;66.20
37232;DHT22;23125;48.156;15.954;2023-11-21T09:19:56;11.60;66.40
37232;DHT22;23125;48.156;15.954;2023-11-21T09:22:22;11.60;66.50
37232;DHT22;23125;48.156;15.954;2023-11-21T09:24:51;11.70;66.70
37232;DHT22;23125;48.156;15.954;2023-11-21T09:27:18;11.70;66.80
37232;DHT22;23125;48.156;15.954;2023-11-21T09:29:44;11.80;66.90
37232;DHT22;23125;48.156;15.954;2023-11-21T09:32:11;11.90;67.00
37232;DHT22;23125;48.156;15.954;2023-11-21T09:34:40;11.90;67.00
37232;DHT22;23125;48.156;15.954;2023-11-21T09:37:05;12.00;67.20
37232;DHT22;23125;48.156;15.954;2023-11-21T09:39:33;12.00;66.90
37232;DHT22;23125;48.156;15.954;2023-11-21T09:42:09;12.10;66.80
37232;DHT22;23125;48.156;15.954;2023-11-21T09:44:58;12.10;66.50
37232;DHT22;23125;48.156;15.954;2023-11-21T09:47:30;12.10;66.60
37232;DHT22;23125;48.156;15.954;2023-11-21T09:49:56;12.10;66.90
37232;DHT22;23125;48.156;15.954;2023-11-21T09:52:27;12.20;66.90
37232;DHT22;23125;48.156;15.954;2023-11-21T09:54:55;12.20;67.10
37232;DHT22;23125;48.156;15.954;2023-11-21T09:57:24;12.30;67.20
37232;DHT22;23125;48.156;15.954;2023-11-21T09:59:52;12.40;67.70
37232;DHT22;23125;48.156;15.954;2023-11-21T10:02:27;12.60;67.90
37232;DHT22;23125;48.156;15.954;2023-11-21T10:04:59;12.60;67.90
37232;DHT22;23125;48.156;15.954;2023-11-21T10:07:26;12.80;67.60
37232;DHT22;23125;48.156;15.954;2023-11-21T10:09:53;12.90;67.40
37232;DHT22;23125;48.156;15.954;2023-11-21T10:12:20;12.90;67.20
37232;DHT22;23125;48.156;15.954;2023-11-21T10:14:49;13.00;67.60
37232;DHT22;23125;48.156;15.954;2023-11-21T10:17:19;13.20;67.80
37232;DHT22;23125;48.156;15.954;2023-11-21T10:19:47;13.30;67.90
37232;DHT22;23125;48.156;15.954;2023-11-21T10:22:15;13.40;68.10
37232;DHT22;23125;48.156;15.954;2023-11-21T10:24:42;13.60;68.10
37232;DHT22;23125;48.156;15.954;2023-11-21T10:27:09;13.70;67.70
37232;DHT22;23125;48.156;15.954;2023-11-21T10:29:35;13.80;67.30
37232;DHT22;23125;48.156;15.954;2023-11-21T10:32:04;13.90;67.00
37232;DHT22;23125;48.156;15.954;2023-11-21T10:34:31;13.90;66.50
37232;DHT22;23125;48.156;15.954;2023-11-21T10:36:57;14.00;66.00
37232;DHT22;23125;48.156;15.954;2023-11-21T10:39:24;14.00;65.80
37232;DHT22;23125;48.156;15.954;2023-11-21T10:41:55;14.00;65.70
37232;DHT22;23125;48.156;15.954;2023-11-21T10:44:21;14.00;65.50
37232;DHT22;23125;48.156;15.954;2023-11-21T10:46:54;14.00;65.60
37232;DHT22;23125;48.156;15.954;2023-11-21T10:49:26;14.00;65.80
37232;DHT22;23125;48.156;15.954;2023-11-21T10:51:53;14.10;65.90
37232;DHT22;23125;48.156;15.954;2023-11-21T10:54:24;14.20;66.00
37232;DHT22;23125;48.156;15.954;2023-11-21T10:56:57;14.20;65.50
37232;DHT22;23125;48.156;15.954;2023-11-21T10:59:29;14.20;65.30
37232;DHT22;23125;48.156;15.954;2023-11-21T11:01:58;14.20;65.30
37232;DHT22;23125;48.156;15.954;2023-11-21T11:04:27;14.20;65.20
37232;DHT22;23125;48.156;15.954;2023-11-21T11:07:02;14.30;65.20
37232;DHT22;23125;48.156;15.954;2023-11-21T11:09:31;14.30;65.00
37232;DHT22;23125;48.156;15.954;2023-11-21T11:12:04;14.30;65.10
37232;DHT22;23125;48.156;15.954;2023-11-21T11:14:30;14.40;65.30
37232;DHT22;23125;48.156;15.954;2023-11-21T11:16:58;14.40;65.40
37232;DHT22;23125;48.156;15.954;2023-11-21T11:19:25;14.50;65.60
37232;DHT22;23125;48.156;15.954;2023-11-21T11:22:15;14.60;65.60
37232;DHT22;23125;48.156;15.954;2023-11-21T11:24:50;14.70;65.60
37232;DHT22;23125;48.156;15.954;2023-11-21T11:27:57;14.70;65.00
37232;DHT22;23125;48.156;15.954;2023-11-21T11:30:41;14.80;64.90
37232;DHT22;23125;48.156;15.954;2023-11-21T11:33:19;14.70;64.00
37232;DHT22;23125;48.156;15.954;2023-11-21T11:36:17;14.70;63.70
37232;DHT22;23125;48.156;15.954;2023-11-21T11:38:46;14.70;63.70
37232;DHT22;23125;48.156;15.954;2023-11-21T11:41:27;14.60;63.20
37232;DHT22;23125;48.156;15.954;2023-11-21T11:43:55;14.50;63.20
37232;DHT22;23125;48.156;15.954;2023-11-21T11:46:40;14.60;63.20
37232;DHT22;23125;48.156;15.954;2023-11-21T11:49:07;14.50;63.30
37232;DHT22;23125;48.156;15.954;2023-11-21T11:51:34;14.50;63.10
37232;DHT22;23125;48.156;15.954;2023-11-21T11:54:01;14.50;63.40
37232;DHT22;23125;48.156;15.954;2023-11-21T11:56:31;14.50;63.30
37232;DHT22;23125;48.156;15.954;2023-11-21T11:59:02;14.50;63.10
37232;DHT22;23125;48.156;15.954;2023-11-21T12:01:31;14.40;62.90
37232;DHT22;23125;48.156;15.954;2023-11-21T12:06:41;14.40;62.70
37232;DHT22;23125;48.156;15.954;2023-11-21T12:09:19;14.30;62.70
37232;DHT22;23125;48.156;15.954;2023-11-21T12:11:50;14.30;62.70
37232;DHT22;23125;48.156;15.954;2023-11-21T12:14:17;14.30;62.90
37232;DHT22;23125;48.156;15.954;2023-11-21T12:16:44;14.30;62.60
37232;DHT22;23125;48.156;15.954;2023-11-21T12:19:11;14.20;62.20
37232;DHT22;23125;48.156;15.954;2023-11-21T12:21:38;14.20;61.90
37232;DHT22;23125;48.156;15.954;2023-11-21T12:24:07;14.10;61.70
37232;DHT22;23125;48.156;15.954;2023-11-21T12:26:37;14.00;61.50
37232;DHT22;23125;48.156;15.954;2023-11-21T12:29:02;14.00;61.70
37232;DHT22;23125;48.156;15.954;2023-11-21T12:31:30;13.90;61.80
37232;DHT22;23125;48.156;15.954;2023-11-21T12:33:56;13.90;61.80
37232;DHT22;23125;48.156;15.954;2023-11-21T12:36:23;13.90;62.00
37232;DHT22;23125;48.156;15.954;2023-11-21T12:38:49;13.80;62.00
37232;DHT22;23125;48.156;15.954;2023-11-21T12:41:16;13.80;61.80
37232;DHT22;23125;48.156;15.954;2023-11-21T12:43:43;13.70;61.80
37232;DHT22;23125;48.156;15.954;2023-11-21T12:46:10;13.70;61.50
37232;DHT22;23125;48.156;15.954;2023-11-21T12:48:41;13.60;61.50
37232;DHT22;23125;48.156;15.954;2023-11-21T12:51:10;13.60;61.60
37232;DHT22;23125;48.156;15.954;2023-11-21T12:53:44;13.50;61.50
37232;DHT22;23125;48.156;15.954;2023-11-21T12:56:11;13.50;61.60
37232;DHT22;23125;48.156;15.954;2023-11-21T12:58:39;13.50;61.70
37232;DHT22;23125;48.156;15.954;2023-11-21T13:01:06;13.40;61.80
37232;DHT22;23125;48.156;15.954;2023-11-21T13:03:38;13.40;62.00
37232;DHT22;23125;48.156;15.954;2023-11-21T13:06:05;13.40;62.10
37232;DHT22;23125;48.156;15.954;2023-11-21T13:08:31;13.50;62.30
37232;DHT22;23125;48.156;15.954;2023-11-21T13:10:58;13.50;62.40
37232;DHT22;23125;48.156;15.954;2023-11-21T13:13:27;13.50;62.20
37232;DHT22;23125;48.156;15.954;2023-11-21T13:15:55;13.50;62.20
37232;DHT22;23125;48.156;15.954;2023-11-21T13:18:23;13.50;62.20
37232;DHT22;23125;48.156;15.954;2023-11-21T13:20:49;13.50;62.10
37232;DHT22;23125;48.156;15.954;2023-11-21T13:23:16;13.50;62.10
37232;DHT22;23125;48.156;15.954;2023-11-21T13:25:43;13.60;62.10
37232;DHT22;23125;48.156;15.954;2023-11-21T13:28:11;13.60;62.10
37232;DHT22;23125;48.156;15.954;2023-11-21T13:30:37;13.60;62.20
37232;DHT22;23125;48.156;15.954;2023-11-21T13:33:07;13.60;62.00
37232;DHT22;23125;48.156;15.954;2023-11-21T13:35:35;13.60;61.90
37232;DHT22;23125;48.156;15.954;2023-11-21T13:38:04;13.50;61.80
37232;DHT22;23125;48.156;15.954;2023-11-21T13:40:32;13.60;61.80
37232;DHT22;23125;48.156;15.954;2023-11-21T13:43:00;13.50;61.60
37232;DHT22;23125;48.156;15.954;2023-11-21T13:45:30;13.50;61.70
37232;DHT22;23125;48.156;15.954;2023-11-21T13:47:57;13.50;61.80
37232;DHT22;23125;48.156;15.954;2023-11-21T13:50:26;13.50;61.70
37232;DHT22;23125;48.156;15.954;2023-11-21T13:53:01;13.50;61.60
37232;DHT22;23125;48.156;15.954;2023-11-21T13:55:44;13.50;61.70
37232;DHT22;23125;48.156;15.954;2023-11-21T13:58:11;13.40;61.60
37232;DHT22;23125;48.156;15.954;2023-11-21T14:00:43;13.40;61.60
37232;DHT22;23125;48.156;15.954;2023-11-21T14:03:12;13.40;61.60
37232;DHT22;23125;48.156;15.954;2023-11-21T14:05:48;13.40;61.70
37232;DHT22;23125;48.156;15.954;2023-11-21T14:08:18;13.40;61.60
37232;DHT22;23125;48.156;15.954;2023-11-21T14:10:50;13.30;61.70
37232;DHT22;23125;48.156;15.954;2023-11-21T14:13:18;13.30;61.70
37232;DHT22;23125;48.156;15.954;2023-11-21T14:15:49;13.30;61.80
37232;DHT22;23125;48.156;15.954;2023-11-21T14:18:17;13.20;61.80
37232;DHT22;23125;48.156;15.954;2023-11-21T14:20:51;13.20;61.80
37232;DHT22;23125;48.156;15.954;2023-11-21T14:23:17;13.20;61.90
37232;DHT22;23125;48.156;15.954;2023-11-21T14:25:44;13.20;62.00
37232;DHT22;23125;48.156;15.954;2023-11-21T14:28:10;13.20;62.00
37232;DHT22;23125;48.156;15.954;2023-11-21T14:30:38;13.20;62.00
37232;DHT22;23125;48.156;15.954;2023-11-21T14:33:05;13.20;62.00
37232;DHT22;23125;48.156;15.954;2023-11-21T14:35:32;13.20;62.00
37232;DHT22;23125;48.156;15.954;2023-11-21T14:38:01;13.20;61.80
37232;DHT22;23125;48.156;15.954;2023-11-21T14:40:31;13.20;61.80
37232;DHT22;23125;48.156;15.954;2023-11-21T14:43:04;13.20;61.70
37232;DHT22;23125;48.156;15.954;2023-11-21T14:45:34;13.20;61.60
37232;DHT22;23125;48.156;15.954;2023-11-21T14:48:00;13.10;61.50
37232;DHT22;23125;48.156;15.954;2023-11-21T14:50:42;13.10;61.50
37232;DHT22;23125;48.156;15.954;2023-11-21T14:53:09;13.10;61.70
37232;DHT22;23125;48.156;15.954;2023-11-21T14:55:35;13.10;61.60
37232;DHT22;23125;48.156;15.954;2023-11-21T14:58:17;13.00;61.40
37232;DHT22;23125;48.156;15.954;2023-11-21T15:00:58;12.90;61.50
37232;DHT22;23125;48.156;15.954;2023-11-21T15:03:25;12.90;61.50
37232;DHT22;23125;48.156;15.954;2023-11-21T15:06:01;12.90;61.50
37232;DHT22;23125;48.156;15.954;2023-11-21T15:08:51;12.80;61.60
37232;DHT22;23125;48.156;15.954;2023-11-21T15:11:33;12.80;61.60
37232;DHT22;23125;48.156;15.954;2023-11-21T15:13:59;12.70;61.60
37232;DHT22;23125;48.156;15.954;2023-11-21T15:16:26;12.70;61.70
37232;DHT22;23125;48.156;15.954;2023-11-21T15:18:52;12.60;61.80
37232;DHT22;23125;48.156;15.954;2023-11-21T15:21:21;12.60;61.90
37232;DHT22;23125;48.156;15.954;2023-11-21T15:23:51;12.60;61.70
37232;DHT22;23125;48.156;15.954;2023-11-21T15:26:17;12.60;61.80
37232;DHT22;23125;48.156;15.954;2023-11-21T15:28:43;12.50;61.90
37232;DHT22;23125;48.156;15.954;2023-11-21T15:31:08;12.50;62.00